sensor_id;sensor_type;location;lat;lon;timestamp;temperature;humidity
12568;DHT22;6349;50.904;6.136;2022-09-09T00:00:24;16.90;99.90
12568;DHT22;6349;50.904;6.136;2022-09-09T00:02:28;16.80;99.90
12568;DHT22;6349;50.904;6.136;2022-09-09T00:04:31;16.80;99.90
12568;DHT22;6349;50.904;6.136;2022-09-09T00:09:16;16.70;99.90
12568;DHT22;6349;50.904;6.136;2022-09-09T00:11:26;16.60;99.90
12568;DHT22;6349;50.904;6.136;2022-09-09T00:13:35;16.50;99.90
12568;DHT22;6349;50.904;6.136;2022-09-09T00:16:03;16.50;99.90
12568;DHT22;6349;50.904;6.136;2022-09-09T00:18:29;16.50;99.90
12568;DHT22;6349;50.904;6.136;2022-09-09T00:20:39;16.40;99.90
12568;DHT22;6349;50.904;6.136;2022-09-09T00:22:50;16.40;99.90
12568;DHT22;6349;50.904;6.136;2022-09-09T00:24:55;16.40;99.90
12568;DHT22;6349;50.904;6.136;2022-09-09T00:27:04;16.40;99.90
12568;DHT22;6349;50.904;6.136;2022-09-09T00:29:14;16.40;99.90
12568;DHT22;6349;50.904;6.136;2022-09-09T00:31:30;16.40;99.90
12568;DHT22;6349;50.904;6.136;2022-09-09T00:33:31;16.30;99.90
12568;DHT22;6349;50.904;6.136;2022-09-09T00:35:36;16.30;99.90
12568;DHT22;6349;50.904;6.136;2022-09-09T00:37:37;16.30;99.90
12568;DHT22;6349;50.904;6.136;2022-09-09T00:39:44;16.30;99.90
12568;DHT22;6349;50.904;6.136;2022-09-09T00:42:04;16.20;99.90
12568;DHT22;6349;50.904;6.136;2022-09-09T00:44:32;16.10;99.90
12568;DHT22;6349;50.904;6.136;2022-09-09T00:46:52;16.00;99.90
12568;DHT22;6349;50.904;6.136;2022-09-09T00:49:17;16.00;99.90
12568;DHT22;6349;50.904;6.136;2022-09-09T00:51:48;15.90;99.90
12568;DHT22;6349;50.904;6.136;2022-09-09T00:56:37;15.90;99.90
12568;DHT22;6349;50.904;6.136;2022-09-09T00:58:50;15.90;99.90
12568;DHT22;6349;50.904;6.136;2022-09-09T01:00:57;16.00;99.90
12568;DHT22;6349;50.904;6.136;2022-09-09T01:05:41;15.90;99.90
12568;DHT22;6349;50.904;6.136;2022-09-09T01:07:44;15.90;99.90
12568;DHT22;6349;50.904;6.136;2022-09-09T01:10:00;15.90;99.90
12568;DHT22;6349;50.904;6.136;2022-09-09T01:12:47;15.90;99.90
12568;DHT22;6349;50.904;6.136;2022-09-09T01:16:47;15.90;99.90
12568;DHT22;6349;50.904;6.136;2022-09-09T01:18:52;16.00;99.90
12568;DHT22;6349;50.904;6.136;2022-09-09T01:21:04;16.00;99.90
12568;DHT22;6349;50.904;6.136;2022-09-09T01:23:48;16.00;99.90
12568;DHT22;6349;50.904;6.136;2022-09-09T01:26:12;16.10;99.90
12568;DHT22;6349;50.904;6.136;2022-09-09T01:28:19;16.10;99.90
12568;DHT22;6349;50.904;6.136;2022-09-09T01:30:21;16.10;99.90
12568;DHT22;6349;50.904;6.136;2022-09-09T01:32:47;16.10;99.90
12568;DHT22;6349;50.904;6.136;2022-09-09T01:34:49;16.10;99.90
12568;DHT22;6349;50.904;6.136;2022-09-09T01:37:05;16.10;99.90
12568;DHT22;6349;50.904;6.136;2022-09-09T01:39:07;16.10;99.90
12568;DHT22;6349;50.904;6.136;2022-09-09T01:41:07;16.10;99.90
12568;DHT22;6349;50.904;6.136;2022-09-09T01:43:08;16.10;99.90
12568;DHT22;6349;50.904;6.136;2022-09-09T01:45:09;16.10;99.90
12568;DHT22;6349;50.904;6.136;2022-09-09T01:47:10;16.10;99.90
12568;DHT22;6349;50.904;6.136;2022-09-09T01:49:11;16.10;99.90
12568;DHT22;6349;50.904;6.136;2022-09-09T01:51:12;16.10;99.90
12568;DHT22;6349;50.904;6.136;2022-09-09T01:53:14;16.10;99.90
12568;DHT22;6349;50.904;6.136;2022-09-09T01:55:20;16.10;99.90
12568;DHT22;6349;50.904;6.136;2022-09-09T01:57:26;16.10;99.90
12568;DHT22;6349;50.904;6.136;2022-09-09T02:00:08;16.10;99.90
12568;DHT22;6349;50.904;6.136;2022-09-09T02:02:36;16.10;99.90
12568;DHT22;6349;50.904;6.136;2022-09-09T02:06:40;16.10;99.90
12568;DHT22;6349;50.904;6.136;2022-09-09T02:08:46;16.10;99.90
12568;DHT22;6349;50.904;6.136;2022-09-09T02:10:58;16.10;99.90
12568;DHT22;6349;50.904;6.136;2022-09-09T02:13:07;16.10;99.90
12568;DHT22;6349;50.904;6.136;2022-09-09T02:15:20;16.10;99.90
12568;DHT22;6349;50.904;6.136;2022-09-09T02:17:27;16.10;99.90
12568;DHT22;6349;50.904;6.136;2022-09-09T02:19:32;16.00;99.90
12568;DHT22;6349;50.904;6.136;2022-09-09T02:21:35;16.00;99.90
12568;DHT22;6349;50.904;6.136;2022-09-09T02:23:37;16.10;99.90
12568;DHT22;6349;50.904;6.136;2022-09-09T02:25:41;16.00;99.90
12568;DHT22;6349;50.904;6.136;2022-09-09T02:27:44;16.00;99.90
12568;DHT22;6349;50.904;6.136;2022-09-09T02:29:45;16.00;99.90
12568;DHT22;6349;50.904;6.136;2022-09-09T02:31:50;16.00;99.90
12568;DHT22;6349;50.904;6.136;2022-09-09T02:33:56;16.10;99.90
12568;DHT22;6349;50.904;6.136;2022-09-09T02:35:58;16.10;99.90
12568;DHT22;6349;50.904;6.136;2022-09-09T02:38:07;16.10;99.90
12568;DHT22;6349;50.904;6.136;2022-09-09T02:40:11;16.10;99.90
12568;DHT22;6349;50.904;6.136;2022-09-09T02:42:12;16.10;99.90
12568;DHT22;6349;50.904;6.136;2022-09-09T02:44:17;16.10;99.90
12568;DHT22;6349;50.904;6.136;2022-09-09T02:48:59;16.00;99.90
12568;DHT22;6349;50.904;6.136;2022-09-09T02:51:16;16.00;99.90
12568;DHT22;6349;50.904;6.136;2022-09-09T02:53:24;16.00;99.90
12568;DHT22;6349;50.904;6.136;2022-09-09T02:55:46;16.10;99.90
12568;DHT22;6349;50.904;6.136;2022-09-09T02:57:49;16.10;99.90
12568;DHT22;6349;50.904;6.136;2022-09-09T02:59:50;16.10;99.90
12568;DHT22;6349;50.904;6.136;2022-09-09T03:01:52;16.10;99.90
12568;DHT22;6349;50.904;6.136;2022-09-09T03:03:53;16.20;99.90
12568;DHT22;6349;50.904;6.136;2022-09-09T03:05:55;16.10;99.90
12568;DHT22;6349;50.904;6.136;2022-09-09T03:07:57;16.20;99.90
12568;DHT22;6349;50.904;6.136;2022-09-09T03:09:58;16.10;99.90
12568;DHT22;6349;50.904;6.136;2022-09-09T03:11:59;16.20;99.90
12568;DHT22;6349;50.904;6.136;2022-09-09T03:14:01;16.20;99.90
12568;DHT22;6349;50.904;6.136;2022-09-09T03:16:02;16.10;99.90
12568;DHT22;6349;50.904;6.136;2022-09-09T03:18:04;16.20;99.90
12568;DHT22;6349;50.904;6.136;2022-09-09T03:20:05;16.20;99.90
12568;DHT22;6349;50.904;6.136;2022-09-09T03:22:06;16.20;99.90
12568;DHT22;6349;50.904;6.136;2022-09-09T03:24:07;16.20;99.90
12568;DHT22;6349;50.904;6.136;2022-09-09T03:26:07;16.10;99.90
12568;DHT22;6349;50.904;6.136;2022-09-09T03:28:08;16.10;99.90
12568;DHT22;6349;50.904;6.136;2022-09-09T03:30:09;16.20;99.90
12568;DHT22;6349;50.904;6.136;2022-09-09T03:32:10;16.10;99.90
12568;DHT22;6349;50.904;6.136;2022-09-09T03:34:11;16.10;99.90
12568;DHT22;6349;50.904;6.136;2022-09-09T03:36:11;16.10;99.90
12568;DHT22;6349;50.904;6.136;2022-09-09T03:38:12;16.10;99.90
12568;DHT22;6349;50.904;6.136;2022-09-09T03:40:13;16.10;99.90
12568;DHT22;6349;50.904;6.136;2022-09-09T03:42:15;16.20;99.90
12568;DHT22;6349;50.904;6.136;2022-09-09T03:44:19;16.20;99.90
12568;DHT22;6349;50.904;6.136;2022-09-09T03:46:21;16.20;99.90
12568;DHT22;6349;50.904;6.136;2022-09-09T03:48:23;16.20;99.90
12568;DHT22;6349;50.904;6.136;2022-09-09T03:50:24;16.20;99.90
12568;DHT22;6349;50.904;6.136;2022-09-09T03:52:25;16.20;99.90
12568;DHT22;6349;50.904;6.136;2022-09-09T03:54:26;16.20;99.90
12568;DHT22;6349;50.904;6.136;2022-09-09T03:56:27;16.20;99.90
12568;DHT22;6349;50.904;6.136;2022-09-09T03:58:28;16.20;99.90
12568;DHT22;6349;50.904;6.136;2022-09-09T04:00:29;16.20;99.90
12568;DHT22;6349;50.904;6.136;2022-09-09T04:02:30;16.20;99.90
12568;DHT22;6349;50.904;6.136;2022-09-09T04:04:31;16.20;99.90
12568;DHT22;6349;50.904;6.136;2022-09-09T04:06:32;16.20;99.90
12568;DHT22;6349;50.904;6.136;2022-09-09T04:08:33;16.20;99.90
12568;DHT22;6349;50.904;6.136;2022-09-09T04:10:35;16.20;99.90
12568;DHT22;6349;50.904;6.136;2022-09-09T04:12:37;16.10;99.90
12568;DHT22;6349;50.904;6.136;2022-09-09T04:14:38;16.20;99.90
12568;DHT22;6349;50.904;6.136;2022-09-09T04:16:39;16.20;99.90
12568;DHT22;6349;50.904;6.136;2022-09-09T04:18:44;16.20;99.90
12568;DHT22;6349;50.904;6.136;2022-09-09T04:20:47;16.20;99.90
12568;DHT22;6349;50.904;6.136;2022-09-09T04:22:48;16.20;99.90
12568;DHT22;6349;50.904;6.136;2022-09-09T04:24:49;16.20;99.90
12568;DHT22;6349;50.904;6.136;2022-09-09T04:26:49;16.20;99.90
12568;DHT22;6349;50.904;6.136;2022-09-09T04:28:50;16.20;99.90
12568;DHT22;6349;50.904;6.136;2022-09-09T04:30:51;16.20;99.90
12568;DHT22;6349;50.904;6.136;2022-09-09T04:32:52;16.20;99.90
12568;DHT22;6349;50.904;6.136;2022-09-09T04:34:53;16.20;99.90
12568;DHT22;6349;50.904;6.136;2022-09-09T04:36:54;16.20;99.90
12568;DHT22;6349;50.904;6.136;2022-09-09T04:38:55;16.20;99.90
12568;DHT22;6349;50.904;6.136;2022-09-09T04:40:55;16.20;99.90
12568;DHT22;6349;50.904;6.136;2022-09-09T04:42:58;16.20;99.90
12568;DHT22;6349;50.904;6.136;2022-09-09T04:44:59;16.20;99.90
12568;DHT22;6349;50.904;6.136;2022-09-09T04:47:00;16.20;99.90
12568;DHT22;6349;50.904;6.136;2022-09-09T04:49:00;16.20;99.90
12568;DHT22;6349;50.904;6.136;2022-09-09T04:51:04;16.20;99.90
12568;DHT22;6349;50.904;6.136;2022-09-09T04:53:06;16.10;99.90
12568;DHT22;6349;50.904;6.136;2022-09-09T04:55:07;16.10;99.90
12568;DHT22;6349;50.904;6.136;2022-09-09T04:57:10;16.00;99.90
12568;DHT22;6349;50.904;6.136;2022-09-09T04:59:11;16.00;99.90
12568;DHT22;6349;50.904;6.136;2022-09-09T05:01:16;16.00;99.90
12568;DHT22;6349;50.904;6.136;2022-09-09T05:03:18;15.90;99.90
12568;DHT22;6349;50.904;6.136;2022-09-09T05:05:19;15.90;99.90
12568;DHT22;6349;50.904;6.136;2022-09-09T05:07:20;15.90;99.90
12568;DHT22;6349;50.904;6.136;2022-09-09T05:09:21;15.90;99.90
12568;DHT22;6349;50.904;6.136;2022-09-09T05:11:24;15.90;99.90
12568;DHT22;6349;50.904;6.136;2022-09-09T05:13:27;15.90;99.90
12568;DHT22;6349;50.904;6.136;2022-09-09T05:15:28;15.80;99.90
12568;DHT22;6349;50.904;6.136;2022-09-09T05:17:29;15.90;99.90
12568;DHT22;6349;50.904;6.136;2022-09-09T05:19:29;15.90;99.90
12568;DHT22;6349;50.904;6.136;2022-09-09T05:21:31;15.80;99.90
12568;DHT22;6349;50.904;6.136;2022-09-09T05:23:33;15.80;99.90
12568;DHT22;6349;50.904;6.136;2022-09-09T05:25:34;15.80;99.90
12568;DHT22;6349;50.904;6.136;2022-09-09T05:27:35;15.80;99.90
12568;DHT22;6349;50.904;6.136;2022-09-09T05:29:35;15.80;99.90
12568;DHT22;6349;50.904;6.136;2022-09-09T05:31:36;15.80;99.90
12568;DHT22;6349;50.904;6.136;2022-09-09T05:33:37;15.80;99.90
12568;DHT22;6349;50.904;6.136;2022-09-09T05:35:41;15.70;99.90
12568;DHT22;6349;50.904;6.136;2022-09-09T05:37:41;15.70;99.90
12568;DHT22;6349;50.904;6.136;2022-09-09T05:39:42;15.70;99.90
12568;DHT22;6349;50.904;6.136;2022-09-09T05:41:43;15.70;99.90
12568;DHT22;6349;50.904;6.136;2022-09-09T05:43:44;15.70;99.90
12568;DHT22;6349;50.904;6.136;2022-09-09T05:45:47;15.70;99.90
12568;DHT22;6349;50.904;6.136;2022-09-09T05:47:51;15.70;99.90
12568;DHT22;6349;50.904;6.136;2022-09-09T05:49:54;15.70;99.90
12568;DHT22;6349;50.904;6.136;2022-09-09T05:51:55;15.70;99.90
12568;DHT22;6349;50.904;6.136;2022-09-09T05:53:56;15.70;99.90
12568;DHT22;6349;50.904;6.136;2022-09-09T05:56:02;15.70;99.90
12568;DHT22;6349;50.904;6.136;2022-09-09T05:58:03;15.70;99.90
12568;DHT22;6349;50.904;6.136;2022-09-09T06:00:05;15.70;99.90
12568;DHT22;6349;50.904;6.136;2022-09-09T06:02:05;15.70;99.90
12568;DHT22;6349;50.904;6.136;2022-09-09T06:04:06;15.70;99.90
12568;DHT22;6349;50.904;6.136;2022-09-09T06:06:11;15.70;99.90
12568;DHT22;6349;50.904;6.136;2022-09-09T06:08:12;15.70;99.90
12568;DHT22;6349;50.904;6.136;2022-09-09T06:10:13;15.70;99.90
12568;DHT22;6349;50.904;6.136;2022-09-09T06:12:16;15.70;99.90
12568;DHT22;6349;50.904;6.136;2022-09-09T06:14:17;15.70;99.90
12568;DHT22;6349;50.904;6.136;2022-09-09T06:16:20;15.60;99.90
12568;DHT22;6349;50.904;6.136;2022-09-09T06:18:23;15.70;99.90
12568;DHT22;6349;50.904;6.136;2022-09-09T06:20:24;15.60;99.90
12568;DHT22;6349;50.904;6.136;2022-09-09T06:22:25;15.60;99.90
12568;DHT22;6349;50.904;6.136;2022-09-09T06:24:26;15.60;99.90
12568;DHT22;6349;50.904;6.136;2022-09-09T06:26:31;15.60;99.90
12568;DHT22;6349;50.904;6.136;2022-09-09T06:28:33;15.60;99.90
12568;DHT22;6349;50.904;6.136;2022-09-09T06:30:34;15.60;99.90
12568;DHT22;6349;50.904;6.136;2022-09-09T06:32:35;15.60;99.90
12568;DHT22;6349;50.904;6.136;2022-09-09T06:34:37;15.60;99.90
12568;DHT22;6349;50.904;6.136;2022-09-09T06:36:39;15.60;99.90
12568;DHT22;6349;50.904;6.136;2022-09-09T06:38:40;15.60;99.90
12568;DHT22;6349;50.904;6.136;2022-09-09T06:40:40;15.60;99.90
12568;DHT22;6349;50.904;6.136;2022-09-09T06:42:41;15.60;99.90
12568;DHT22;6349;50.904;6.136;2022-09-09T06:44:42;15.70;99.90
12568;DHT22;6349;50.904;6.136;2022-09-09T06:46:42;15.80;99.90
12568;DHT22;6349;50.904;6.136;2022-09-09T06:48:44;15.80;99.90
12568;DHT22;6349;50.904;6.136;2022-09-09T06:50:45;15.90;99.90
12568;DHT22;6349;50.904;6.136;2022-09-09T06:52:46;16.00;99.90
12568;DHT22;6349;50.904;6.136;2022-09-09T06:54:48;16.10;99.90
12568;DHT22;6349;50.904;6.136;2022-09-09T06:56:48;16.20;99.90
12568;DHT22;6349;50.904;6.136;2022-09-09T06:58:51;16.20;99.90
12568;DHT22;6349;50.904;6.136;2022-09-09T07:00:52;16.30;99.90
12568;DHT22;6349;50.904;6.136;2022-09-09T07:02:53;16.40;99.90
12568;DHT22;6349;50.904;6.136;2022-09-09T07:04:53;16.50;99.90
12568;DHT22;6349;50.904;6.136;2022-09-09T07:06:54;16.60;99.90
12568;DHT22;6349;50.904;6.136;2022-09-09T07:08:57;16.60;99.90
12568;DHT22;6349;50.904;6.136;2022-09-09T07:11:03;16.70;99.90
12568;DHT22;6349;50.904;6.136;2022-09-09T07:13:05;16.60;99.90
12568;DHT22;6349;50.904;6.136;2022-09-09T07:15:06;16.70;99.90
12568;DHT22;6349;50.904;6.136;2022-09-09T07:17:07;16.80;99.90
12568;DHT22;6349;50.904;6.136;2022-09-09T07:19:08;16.80;99.90
12568;DHT22;6349;50.904;6.136;2022-09-09T07:21:11;16.80;99.90
12568;DHT22;6349;50.904;6.136;2022-09-09T07:23:12;16.80;99.90
12568;DHT22;6349;50.904;6.136;2022-09-09T07:25:13;16.80;99.90
12568;DHT22;6349;50.904;6.136;2022-09-09T07:27:14;16.80;99.90
12568;DHT22;6349;50.904;6.136;2022-09-09T07:29:15;16.80;99.90
12568;DHT22;6349;50.904;6.136;2022-09-09T07:31:18;16.80;99.90
12568;DHT22;6349;50.904;6.136;2022-09-09T07:33:19;16.80;99.90
12568;DHT22;6349;50.904;6.136;2022-09-09T07:35:20;16.90;99.90
12568;DHT22;6349;50.904;6.136;2022-09-09T07:37:20;16.80;99.90
12568;DHT22;6349;50.904;6.136;2022-09-09T07:39:22;16.80;99.90
12568;DHT22;6349;50.904;6.136;2022-09-09T07:41:29;16.80;99.90
12568;DHT22;6349;50.904;6.136;2022-09-09T07:43:31;16.90;99.90
12568;DHT22;6349;50.904;6.136;2022-09-09T07:45:33;16.90;99.90
12568;DHT22;6349;50.904;6.136;2022-09-09T07:47:34;16.90;99.90
12568;DHT22;6349;50.904;6.136;2022-09-09T07:49:36;16.90;99.90
12568;DHT22;6349;50.904;6.136;2022-09-09T07:51:40;17.00;99.90
12568;DHT22;6349;50.904;6.136;2022-09-09T07:53:41;17.00;99.90
12568;DHT22;6349;50.904;6.136;2022-09-09T07:55:42;17.00;99.90
12568;DHT22;6349;50.904;6.136;2022-09-09T07:57:43;17.00;99.90
12568;DHT22;6349;50.904;6.136;2022-09-09T07:59:43;17.00;99.90
12568;DHT22;6349;50.904;6.136;2022-09-09T08:01:47;17.00;99.90
12568;DHT22;6349;50.904;6.136;2022-09-09T08:06:09;17.00;99.90
12568;DHT22;6349;50.904;6.136;2022-09-09T08:08:10;17.10;99.90
12568;DHT22;6349;50.904;6.136;2022-09-09T08:10:11;17.10;99.90
12568;DHT22;6349;50.904;6.136;2022-09-09T08:12:11;17.10;99.90
12568;DHT22;6349;50.904;6.136;2022-09-09T08:14:13;17.20;99.90
12568;DHT22;6349;50.904;6.136;2022-09-09T08:16:18;17.20;99.90
12568;DHT22;6349;50.904;6.136;2022-09-09T08:18:19;17.30;99.90
12568;DHT22;6349;50.904;6.136;2022-09-09T08:20:20;17.30;99.90
12568;DHT22;6349;50.904;6.136;2022-09-09T08:22:21;17.40;99.90
12568;DHT22;6349;50.904;6.136;2022-09-09T08:24:22;17.40;99.90
12568;DHT22;6349;50.904;6.136;2022-09-09T08:26:25;17.50;99.90
12568;DHT22;6349;50.904;6.136;2022-09-09T08:28:27;17.50;99.90
12568;DHT22;6349;50.904;6.136;2022-09-09T08:30:27;17.50;99.90
12568;DHT22;6349;50.904;6.136;2022-09-09T08:32:28;17.60;99.90
12568;DHT22;6349;50.904;6.136;2022-09-09T08:34:29;17.60;99.90
12568;DHT22;6349;50.904;6.136;2022-09-09T08:36:34;17.70;99.90
12568;DHT22;6349;50.904;6.136;2022-09-09T08:38:35;17.70;99.90
12568;DHT22;6349;50.904;6.136;2022-09-09T08:40:38;17.80;99.90
12568;DHT22;6349;50.904;6.136;2022-09-09T08:42:47;17.70;99.90
12568;DHT22;6349;50.904;6.136;2022-09-09T08:45:14;17.70;99.90
12568;DHT22;6349;50.904;6.136;2022-09-09T08:50:13;17.70;99.90
12568;DHT22;6349;50.904;6.136;2022-09-09T08:52:19;17.70;99.90
12568;DHT22;6349;50.904;6.136;2022-09-09T08:54:23;17.60;99.90
12568;DHT22;6349;50.904;6.136;2022-09-09T08:56:24;17.70;99.90
12568;DHT22;6349;50.904;6.136;2022-09-09T08:58:31;17.70;99.90
12568;DHT22;6349;50.904;6.136;2022-09-09T09:00:44;17.70;99.90
12568;DHT22;6349;50.904;6.136;2022-09-09T09:05:36;17.80;99.90
12568;DHT22;6349;50.904;6.136;2022-09-09T09:08:03;17.80;99.90
12568;DHT22;6349;50.904;6.136;2022-09-09T09:10:24;17.80;99.90
12568;DHT22;6349;50.904;6.136;2022-09-09T09:12:29;17.80;99.90
12568;DHT22;6349;50.904;6.136;2022-09-09T09:14:35;17.80;99.90
12568;DHT22;6349;50.904;6.136;2022-09-09T09:16:56;17.90;99.90
12568;DHT22;6349;50.904;6.136;2022-09-09T09:18:59;18.00;99.90
12568;DHT22;6349;50.904;6.136;2022-09-09T09:21:13;18.10;99.90
12568;DHT22;6349;50.904;6.136;2022-09-09T09:23:22;18.20;99.90
12568;DHT22;6349;50.904;6.136;2022-09-09T09:25:27;18.20;99.90
12568;DHT22;6349;50.904;6.136;2022-09-09T09:27:51;18.20;99.90
12568;DHT22;6349;50.904;6.136;2022-09-09T09:29:55;18.30;99.90
12568;DHT22;6349;50.904;6.136;2022-09-09T09:31:59;18.40;99.90
12568;DHT22;6349;50.904;6.136;2022-09-09T09:34:02;18.40;99.90
12568;DHT22;6349;50.904;6.136;2022-09-09T09:36:05;18.40;99.90
12568;DHT22;6349;50.904;6.136;2022-09-09T09:38:17;18.50;99.90
12568;DHT22;6349;50.904;6.136;2022-09-09T09:40:20;18.40;99.90
12568;DHT22;6349;50.904;6.136;2022-09-09T09:42:21;18.50;99.90
12568;DHT22;6349;50.904;6.136;2022-09-09T09:44:28;18.50;99.90
12568;DHT22;6349;50.904;6.136;2022-09-09T09:46:29;18.60;99.90
12568;DHT22;6349;50.904;6.136;2022-09-09T09:48:30;18.60;99.90
12568;DHT22;6349;50.904;6.136;2022-09-09T09:50:32;18.60;99.90
12568;DHT22;6349;50.904;6.136;2022-09-09T09:52:33;18.60;99.90
12568;DHT22;6349;50.904;6.136;2022-09-09T09:54:41;18.50;99.90
12568;DHT22;6349;50.904;6.136;2022-09-09T09:56:43;18.40;99.90
12568;DHT22;6349;50.904;6.136;2022-09-09T10:00:56;18.40;99.90
12568;DHT22;6349;50.904;6.136;2022-09-09T10:02:56;18.30;99.90
12568;DHT22;6349;50.904;6.136;2022-09-09T10:05:04;18.30;99.90
12568;DHT22;6349;50.904;6.136;2022-09-09T10:07:19;18.20;99.90
12568;DHT22;6349;50.904;6.136;2022-09-09T10:09:29;18.20;99.90
12568;DHT22;6349;50.904;6.136;2022-09-09T10:11:55;18.30;99.90
12568;DHT22;6349;50.904;6.136;2022-09-09T10:14:20;18.30;99.90
12568;DHT22;6349;50.904;6.136;2022-09-09T10:19:36;18.30;99.90
12568;DHT22;6349;50.904;6.136;2022-09-09T10:27:11;18.30;99.90
12568;DHT22;6349;50.904;6.136;2022-09-09T10:34:49;18.40;99.90
12568;DHT22;6349;50.904;6.136;2022-09-09T10:36:31;18.40;99.90
12568;DHT22;6349;50.904;6.136;2022-09-09T10:39:04;18.40;99.90
12568;DHT22;6349;50.904;6.136;2022-09-09T10:43:52;18.50;99.90
12568;DHT22;6349;50.904;6.136;2022-09-09T10:46:36;18.60;99.90
12568;DHT22;6349;50.904;6.136;2022-09-09T10:52:01;18.60;99.90
12568;DHT22;6349;50.904;6.136;2022-09-09T10:54:05;18.60;99.90
12568;DHT22;6349;50.904;6.136;2022-09-09T10:56:11;18.70;99.90
12568;DHT22;6349;50.904;6.136;2022-09-09T10:58:25;18.60;99.90
12568;DHT22;6349;50.904;6.136;2022-09-09T11:00:43;18.60;99.90
12568;DHT22;6349;50.904;6.136;2022-09-09T11:02:57;18.50;99.90
12568;DHT22;6349;50.904;6.136;2022-09-09T11:05:44;18.40;99.90
12568;DHT22;6349;50.904;6.136;2022-09-09T11:07:34;18.50;99.90
12568;DHT22;6349;50.904;6.136;2022-09-09T11:09:43;18.50;99.90
12568;DHT22;6349;50.904;6.136;2022-09-09T11:11:58;18.60;99.90
12568;DHT22;6349;50.904;6.136;2022-09-09T11:14:12;18.50;99.90
12568;DHT22;6349;50.904;6.136;2022-09-09T11:16:36;18.70;99.90
12568;DHT22;6349;50.904;6.136;2022-09-09T11:18:41;18.80;99.90
12568;DHT22;6349;50.904;6.136;2022-09-09T11:20:44;18.90;99.90
12568;DHT22;6349;50.904;6.136;2022-09-09T11:25:16;19.10;99.90
12568;DHT22;6349;50.904;6.136;2022-09-09T11:27:32;19.00;99.90
12568;DHT22;6349;50.904;6.136;2022-09-09T11:29:44;19.10;99.90
12568;DHT22;6349;50.904;6.136;2022-09-09T11:41:19;19.00;99.90
12568;DHT22;6349;50.904;6.136;2022-09-09T11:43:25;18.90;99.90
12568;DHT22;6349;50.904;6.136;2022-09-09T11:45:28;18.70;99.90
12568;DHT22;6349;50.904;6.136;2022-09-09T11:47:30;18.60;99.90
12568;DHT22;6349;50.904;6.136;2022-09-09T11:51:49;18.60;99.90
12568;DHT22;6349;50.904;6.136;2022-09-09T11:53:57;18.60;99.90
12568;DHT22;6349;50.904;6.136;2022-09-09T11:56:10;18.60;99.90
12568;DHT22;6349;50.904;6.136;2022-09-09T11:58:15;18.60;99.90
12568;DHT22;6349;50.904;6.136;2022-09-09T12:02:48;18.50;99.90
12568;DHT22;6349;50.904;6.136;2022-09-09T12:05:12;18.40;99.90
12568;DHT22;6349;50.904;6.136;2022-09-09T12:07:35;18.30;99.90
12568;DHT22;6349;50.904;6.136;2022-09-09T12:10:01;18.30;99.90
12568;DHT22;6349;50.904;6.136;2022-09-09T12:12:25;18.40;99.90
12568;DHT22;6349;50.904;6.136;2022-09-09T12:14:54;18.40;99.90
12568;DHT22;6349;50.904;6.136;2022-09-09T12:16:56;18.40;99.90
12568;DHT22;6349;50.904;6.136;2022-09-09T12:19:19;18.40;99.90
12568;DHT22;6349;50.904;6.136;2022-09-09T12:22:04;18.50;99.90
12568;DHT22;6349;50.904;6.136;2022-09-09T12:23:57;18.50;99.90
12568;DHT22;6349;50.904;6.136;2022-09-09T12:26:20;18.60;99.90
12568;DHT22;6349;50.904;6.136;2022-09-09T12:28:52;18.70;99.90
12568;DHT22;6349;50.904;6.136;2022-09-09T12:31:18;18.70;99.90
12568;DHT22;6349;50.904;6.136;2022-09-09T12:33:22;18.80;99.90
12568;DHT22;6349;50.904;6.136;2022-09-09T12:35:28;18.80;99.90
12568;DHT22;6349;50.904;6.136;2022-09-09T12:39:49;18.80;99.90
12568;DHT22;6349;50.904;6.136;2022-09-09T12:41:53;18.80;99.90
12568;DHT22;6349;50.904;6.136;2022-09-09T12:44:06;18.90;99.90
12568;DHT22;6349;50.904;6.136;2022-09-09T12:46:10;18.90;99.90
12568;DHT22;6349;50.904;6.136;2022-09-09T12:48:18;18.80;99.90
12568;DHT22;6349;50.904;6.136;2022-09-09T12:50:23;18.80;99.90
12568;DHT22;6349;50.904;6.136;2022-09-09T12:52:31;18.60;99.90
12568;DHT22;6349;50.904;6.136;2022-09-09T12:54:36;18.40;99.90
12568;DHT22;6349;50.904;6.136;2022-09-09T12:56:37;18.20;99.90
12568;DHT22;6349;50.904;6.136;2022-09-09T12:58:38;18.20;99.90
12568;DHT22;6349;50.904;6.136;2022-09-09T13:00:49;18.20;99.90
12568;DHT22;6349;50.904;6.136;2022-09-09T13:02:55;18.30;99.90
12568;DHT22;6349;50.904;6.136;2022-09-09T13:05:08;18.40;99.90
12568;DHT22;6349;50.904;6.136;2022-09-09T13:07:13;18.40;99.90
12568;DHT22;6349;50.904;6.136;2022-09-09T13:09:16;18.50;99.90
12568;DHT22;6349;50.904;6.136;2022-09-09T13:11:24;18.50;99.90
12568;DHT22;6349;50.904;6.136;2022-09-09T13:13:29;18.60;99.90
12568;DHT22;6349;50.904;6.136;2022-09-09T13:15:32;18.70;99.90
12568;DHT22;6349;50.904;6.136;2022-09-09T13:17:32;18.70;99.90
12568;DHT22;6349;50.904;6.136;2022-09-09T13:19:38;18.90;99.90
12568;DHT22;6349;50.904;6.136;2022-09-09T13:21:39;19.00;99.90
12568;DHT22;6349;50.904;6.136;2022-09-09T13:23:41;19.00;99.90
12568;DHT22;6349;50.904;6.136;2022-09-09T13:25:53;19.10;99.90
12568;DHT22;6349;50.904;6.136;2022-09-09T13:27:57;19.10;99.90
12568;DHT22;6349;50.904;6.136;2022-09-09T13:29:58;19.20;99.90
12568;DHT22;6349;50.904;6.136;2022-09-09T13:32:18;19.10;99.90
12568;DHT22;6349;50.904;6.136;2022-09-09T13:34:29;19.10;99.90
12568;DHT22;6349;50.904;6.136;2022-09-09T13:36:32;19.00;99.90
12568;DHT22;6349;50.904;6.136;2022-09-09T13:38:37;19.00;99.90
12568;DHT22;6349;50.904;6.136;2022-09-09T13:40:38;18.90;99.90
12568;DHT22;6349;50.904;6.136;2022-09-09T13:42:41;19.00;99.90
12568;DHT22;6349;50.904;6.136;2022-09-09T13:44:46;18.90;99.90
12568;DHT22;6349;50.904;6.136;2022-09-09T13:46:47;18.90;99.90
12568;DHT22;6349;50.904;6.136;2022-09-09T13:48:57;19.00;99.90
12568;DHT22;6349;50.904;6.136;2022-09-09T13:51:01;18.90;99.90
12568;DHT22;6349;50.904;6.136;2022-09-09T13:53:01;19.00;99.90
12568;DHT22;6349;50.904;6.136;2022-09-09T13:55:03;19.00;99.90
12568;DHT22;6349;50.904;6.136;2022-09-09T13:57:04;19.00;99.90
12568;DHT22;6349;50.904;6.136;2022-09-09T13:59:08;19.10;99.90
12568;DHT22;6349;50.904;6.136;2022-09-09T14:01:10;19.30;99.90
12568;DHT22;6349;50.904;6.136;2022-09-09T14:03:10;19.30;99.90
12568;DHT22;6349;50.904;6.136;2022-09-09T14:05:11;19.40;99.90
12568;DHT22;6349;50.904;6.136;2022-09-09T14:07:14;19.40;99.90
12568;DHT22;6349;50.904;6.136;2022-09-09T14:09:17;19.50;99.90
12568;DHT22;6349;50.904;6.136;2022-09-09T14:11:18;19.60;99.90
12568;DHT22;6349;50.904;6.136;2022-09-09T14:13:19;19.70;99.90
12568;DHT22;6349;50.904;6.136;2022-09-09T14:15:21;19.70;99.90
12568;DHT22;6349;50.904;6.136;2022-09-09T14:17:22;19.70;99.90
12568;DHT22;6349;50.904;6.136;2022-09-09T14:19:23;19.70;99.90
12568;DHT22;6349;50.904;6.136;2022-09-09T14:21:24;19.80;99.90
12568;DHT22;6349;50.904;6.136;2022-09-09T14:23:25;19.80;99.90
12568;DHT22;6349;50.904;6.136;2022-09-09T14:25:26;19.80;99.90
12568;DHT22;6349;50.904;6.136;2022-09-09T14:27:27;19.80;99.90
12568;DHT22;6349;50.904;6.136;2022-09-09T14:29:28;19.90;99.90